sensor_id;sensor_type;location;lat;lon;timestamp;P1;durP1;ratioP1;P2;durP2;ratioP2
13279;SDS011;6708;49.814;8.652;2022-09-17T00:01:29;1.13;;;0.30;;
13279;SDS011;6708;49.814;8.652;2022-09-17T00:03:58;0.53;;;0.37;;
13279;SDS011;6708;49.814;8.652;2022-09-17T00:06:29;0.17;;;0.17;;
13279;SDS011;6708;49.814;8.652;2022-09-17T00:08:58;0.30;;;0.30;;
13279;SDS011;6708;49.814;8.652;2022-09-17T00:11:30;0.20;;;0.20;;
13279;SDS011;6708;49.814;8.652;2022-09-17T00:14:00;1.37;;;0.50;;
13279;SDS011;6708;49.814;8.652;2022-09-17T00:16:31;0.40;;;0.40;;
13279;SDS011;6708;49.814;8.652;2022-09-17T00:19:02;0.30;;;0.30;;
13279;SDS011;6708;49.814;8.652;2022-09-17T00:21:32;1.07;;;0.33;;
13279;SDS011;6708;49.814;8.652;2022-09-17T00:24:01;1.00;;;0.40;;
13279;SDS011;6708;49.814;8.652;2022-09-17T00:26:33;0.90;;;0.30;;
13279;SDS011;6708;49.814;8.652;2022-09-17T00:29:03;0.70;;;0.30;;
13279;SDS011;6708;49.814;8.652;2022-09-17T00:31:32;0.67;;;0.33;;
13279;SDS011;6708;49.814;8.652;2022-09-17T00:34:01;0.50;;;0.50;;
13279;SDS011;6708;49.814;8.652;2022-09-17T00:36:30;0.40;;;0.40;;
13279;SDS011;6708;49.814;8.652;2022-09-17T00:39:02;0.50;;;0.50;;
13279;SDS011;6708;49.814;8.652;2022-09-17T00:41:34;0.20;;;0.20;;
13279;SDS011;6708;49.814;8.652;2022-09-17T00:47:01;0.50;;;0.50;;
13279;SDS011;6708;49.814;8.652;2022-09-17T00:49:30;0.30;;;0.30;;
13279;SDS011;6708;49.814;8.652;2022-09-17T00:52:00;0.40;;;0.40;;
13279;SDS011;6708;49.814;8.652;2022-09-17T00:54:31;0.83;;;0.40;;
13279;SDS011;6708;49.814;8.652;2022-09-17T00:57:03;0.37;;;0.33;;
13279;SDS011;6708;49.814;8.652;2022-09-17T00:59:31;0.37;;;0.37;;
13279;SDS011;6708;49.814;8.652;2022-09-17T01:01:59;0.40;;;0.30;;
13279;SDS011;6708;49.814;8.652;2022-09-17T01:04:28;1.10;;;0.57;;
13279;SDS011;6708;49.814;8.652;2022-09-17T01:06:57;0.40;;;0.40;;
13279;SDS011;6708;49.814;8.652;2022-09-17T01:09:33;0.77;;;0.30;;
13279;SDS011;6708;49.814;8.652;2022-09-17T01:12:16;0.40;;;0.40;;
13279;SDS011;6708;49.814;8.652;2022-09-17T01:15:04;0.53;;;0.20;;
13279;SDS011;6708;49.814;8.652;2022-09-17T01:17:40;0.47;;;0.30;;
13279;SDS011;6708;49.814;8.652;2022-09-17T01:20:34;1.50;;;0.50;;
13279;SDS011;6708;49.814;8.652;2022-09-17T01:23:25;1.57;;;0.57;;
13279;SDS011;6708;49.814;8.652;2022-09-17T01:26:07;0.47;;;0.30;;
13279;SDS011;6708;49.814;8.652;2022-09-17T01:28:50;0.53;;;0.30;;
13279;SDS011;6708;49.814;8.652;2022-09-17T01:31:28;0.80;;;0.20;;
13279;SDS011;6708;49.814;8.652;2022-09-17T01:34:02;0.57;;;0.50;;
13279;SDS011;6708;49.814;8.652;2022-09-17T01:36:39;0.47;;;0.47;;
13279;SDS011;6708;49.814;8.652;2022-09-17T01:39:14;0.40;;;0.37;;
13279;SDS011;6708;49.814;8.652;2022-09-17T01:41:50;1.03;;;0.47;;
13279;SDS011;6708;49.814;8.652;2022-09-17T01:44:22;0.73;;;0.40;;
13279;SDS011;6708;49.814;8.652;2022-09-17T01:46:58;0.63;;;0.63;;
13279;SDS011;6708;49.814;8.652;2022-09-17T01:49:30;4.00;;;0.63;;
13279;SDS011;6708;49.814;8.652;2022-09-17T01:51:59;1.07;;;0.47;;
13279;SDS011;6708;49.814;8.652;2022-09-17T01:54:29;1.63;;;0.40;;
13279;SDS011;6708;49.814;8.652;2022-09-17T01:57:00;0.40;;;0.30;;
13279;SDS011;6708;49.814;8.652;2022-09-17T01:59:33;1.03;;;0.57;;
13279;SDS011;6708;49.814;8.652;2022-09-17T02:02:09;0.50;;;0.50;;
13279;SDS011;6708;49.814;8.652;2022-09-17T02:04:44;0.60;;;0.40;;
13279;SDS011;6708;49.814;8.652;2022-09-17T02:07:16;1.00;;;0.50;;
13279;SDS011;6708;49.814;8.652;2022-09-17T02:09:48;0.30;;;0.20;;
13279;SDS011;6708;49.814;8.652;2022-09-17T02:12:19;1.87;;;0.37;;
13279;SDS011;6708;49.814;8.652;2022-09-17T02:14:50;1.90;;;0.57;;
13279;SDS011;6708;49.814;8.652;2022-09-17T02:17:24;0.40;;;0.40;;
13279;SDS011;6708;49.814;8.652;2022-09-17T02:19:56;0.30;;;0.30;;
13279;SDS011;6708;49.814;8.652;2022-09-17T02:22:26;0.80;;;0.50;;
13279;SDS011;6708;49.814;8.652;2022-09-17T02:24:59;0.37;;;0.30;;
13279;SDS011;6708;49.814;8.652;2022-09-17T02:27:33;1.13;;;0.43;;
13279;SDS011;6708;49.814;8.652;2022-09-17T02:30:07;1.43;;;0.80;;
13279;SDS011;6708;49.814;8.652;2022-09-17T02:32:39;0.67;;;0.67;;
13279;SDS011;6708;49.814;8.652;2022-09-17T02:35:08;0.43;;;0.40;;
13279;SDS011;6708;49.814;8.652;2022-09-17T02:37:38;0.97;;;0.80;;
13279;SDS011;6708;49.814;8.652;2022-09-17T02:40:07;0.67;;;0.50;;
13279;SDS011;6708;49.814;8.652;2022-09-17T02:42:42;1.17;;;0.63;;
13279;SDS011;6708;49.814;8.652;2022-09-17T02:45:22;2.63;;;0.60;;
13279;SDS011;6708;49.814;8.652;2022-09-17T02:48:06;1.03;;;0.50;;
13279;SDS011;6708;49.814;8.652;2022-09-17T02:50:45;1.40;;;0.57;;
13279;SDS011;6708;49.814;8.652;2022-09-17T02:53:33;1.20;;;0.50;;
13279;SDS011;6708;49.814;8.652;2022-09-17T02:56:08;0.60;;;0.60;;
13279;SDS011;6708;49.814;8.652;2022-09-17T02:58:44;2.63;;;0.50;;
13279;SDS011;6708;49.814;8.652;2022-09-17T03:01:17;2.73;;;0.90;;
13279;SDS011;6708;49.814;8.652;2022-09-17T03:03:50;1.47;;;0.60;;
13279;SDS011;6708;49.814;8.652;2022-09-17T03:06:22;1.00;;;0.50;;
13279;SDS011;6708;49.814;8.652;2022-09-17T03:08:51;0.87;;;0.60;;
13279;SDS011;6708;49.814;8.652;2022-09-17T03:11:21;0.93;;;0.70;;
13279;SDS011;6708;49.814;8.652;2022-09-17T03:13:49;0.53;;;0.53;;
13279;SDS011;6708;49.814;8.652;2022-09-17T03:16:18;1.00;;;0.50;;
13279;SDS011;6708;49.814;8.652;2022-09-17T03:18:46;0.73;;;0.60;;
13279;SDS011;6708;49.814;8.652;2022-09-17T03:21:17;0.93;;;0.67;;
13279;SDS011;6708;49.814;8.652;2022-09-17T03:23:46;0.30;;;0.30;;
13279;SDS011;6708;49.814;8.652;2022-09-17T03:26:14;0.77;;;0.77;;
13279;SDS011;6708;49.814;8.652;2022-09-17T03:28:42;0.57;;;0.57;;
13279;SDS011;6708;49.814;8.652;2022-09-17T03:31:14;0.70;;;0.70;;
13279;SDS011;6708;49.814;8.652;2022-09-17T03:33:43;0.60;;;0.60;;
13279;SDS011;6708;49.814;8.652;2022-09-17T03:36:11;0.40;;;0.40;;
13279;SDS011;6708;49.814;8.652;2022-09-17T03:38:42;1.60;;;0.77;;
13279;SDS011;6708;49.814;8.652;2022-09-17T03:41:10;2.00;;;0.53;;
13279;SDS011;6708;49.814;8.652;2022-09-17T03:43:39;1.67;;;0.70;;
13279;SDS011;6708;49.814;8.652;2022-09-17T03:46:07;1.27;;;0.70;;
13279;SDS011;6708;49.814;8.652;2022-09-17T03:48:35;0.60;;;0.60;;
13279;SDS011;6708;49.814;8.652;2022-09-17T03:51:04;1.37;;;0.60;;
13279;SDS011;6708;49.814;8.652;2022-09-17T03:53:33;2.10;;;0.70;;
13279;SDS011;6708;49.814;8.652;2022-09-17T03:56:04;0.73;;;0.30;;
13279;SDS011;6708;49.814;8.652;2022-09-17T03:58:33;1.03;;;0.67;;
13279;SDS011;6708;49.814;8.652;2022-09-17T04:01:03;0.73;;;0.73;;
13279;SDS011;6708;49.814;8.652;2022-09-17T04:03:31;0.60;;;0.60;;
13279;SDS011;6708;49.814;8.652;2022-09-17T04:06:00;1.23;;;0.77;;
13279;SDS011;6708;49.814;8.652;2022-09-17T04:08:28;0.97;;;0.50;;
13279;SDS011;6708;49.814;8.652;2022-09-17T04:10:56;3.20;;;0.73;;
13279;SDS011;6708;49.814;8.652;2022-09-17T04:13:27;1.40;;;0.70;;
13279;SDS011;6708;49.814;8.652;2022-09-17T04:15:58;2.53;;;0.60;;
13279;SDS011;6708;49.814;8.652;2022-09-17T04:18:26;3.03;;;0.67;;
13279;SDS011;6708;49.814;8.652;2022-09-17T04:20:55;0.57;;;0.57;;
13279;SDS011;6708;49.814;8.652;2022-09-17T04:23:23;1.07;;;0.90;;
13279;SDS011;6708;49.814;8.652;2022-09-17T04:25:52;1.57;;;0.60;;
13279;SDS011;6708;49.814;8.652;2022-09-17T04:28:20;1.03;;;0.60;;
13279;SDS011;6708;49.814;8.652;2022-09-17T04:30:51;0.70;;;0.70;;
13279;SDS011;6708;49.814;8.652;2022-09-17T04:33:19;2.30;;;0.73;;
13279;SDS011;6708;49.814;8.652;2022-09-17T04:35:48;1.50;;;0.73;;
13279;SDS011;6708;49.814;8.652;2022-09-17T04:38:16;0.60;;;0.60;;
13279;SDS011;6708;49.814;8.652;2022-09-17T04:40:46;1.07;;;0.70;;
13279;SDS011;6708;49.814;8.652;2022-09-17T04:43:15;0.77;;;0.70;;
13279;SDS011;6708;49.814;8.652;2022-09-17T04:45:44;0.73;;;0.73;;
13279;SDS011;6708;49.814;8.652;2022-09-17T04:48:16;1.43;;;0.83;;
13279;SDS011;6708;49.814;8.652;2022-09-17T04:50:44;0.60;;;0.60;;
13279;SDS011;6708;49.814;8.652;2022-09-17T04:53:13;1.13;;;0.67;;
13279;SDS011;6708;49.814;8.652;2022-09-17T04:55:42;1.67;;;0.57;;
13279;SDS011;6708;49.814;8.652;2022-09-17T04:58:11;1.90;;;0.77;;
13279;SDS011;6708;49.814;8.652;2022-09-17T05:00:39;0.90;;;0.63;;
13279;SDS011;6708;49.814;8.652;2022-09-17T05:03:08;0.50;;;0.50;;
13279;SDS011;6708;49.814;8.652;2022-09-17T05:05:39;0.50;;;0.50;;
13279;SDS011;6708;49.814;8.652;2022-09-17T05:08:07;0.60;;;0.60;;
13279;SDS011;6708;49.814;8.652;2022-09-17T05:10:36;0.97;;;0.80;;
13279;SDS011;6708;49.814;8.652;2022-09-17T05:13:04;2.37;;;0.50;;
13279;SDS011;6708;49.814;8.652;2022-09-17T05:15:32;2.33;;;0.80;;
13279;SDS011;6708;49.814;8.652;2022-09-17T05:18:01;0.50;;;0.50;;
13279;SDS011;6708;49.814;8.652;2022-09-17T05:20:29;1.03;;;0.80;;
13279;SDS011;6708;49.814;8.652;2022-09-17T05:23:00;0.70;;;0.70;;
13279;SDS011;6708;49.814;8.652;2022-09-17T05:25:28;1.27;;;0.93;;
13279;SDS011;6708;49.814;8.652;2022-09-17T05:27:57;0.87;;;0.87;;
13279;SDS011;6708;49.814;8.652;2022-09-17T05:30:25;0.80;;;0.80;;
13279;SDS011;6708;49.814;8.652;2022-09-17T05:32:57;0.50;;;0.50;;
13279;SDS011;6708;49.814;8.652;2022-09-17T05:35:27;1.40;;;0.70;;
13279;SDS011;6708;49.814;8.652;2022-09-17T05:37:57;1.50;;;1.17;;
13279;SDS011;6708;49.814;8.652;2022-09-17T05:40:29;4.17;;;0.80;;
13279;SDS011;6708;49.814;8.652;2022-09-17T05:42:58;0.40;;;0.40;;
13279;SDS011;6708;49.814;8.652;2022-09-17T05:45:27;1.30;;;0.87;;
13279;SDS011;6708;49.814;8.652;2022-09-17T05:47:56;0.57;;;0.57;;
13279;SDS011;6708;49.814;8.652;2022-09-17T05:50:25;0.77;;;0.77;;
13279;SDS011;6708;49.814;8.652;2022-09-17T05:52:55;1.43;;;0.70;;
13279;SDS011;6708;49.814;8.652;2022-09-17T05:55:26;2.03;;;0.60;;
13279;SDS011;6708;49.814;8.652;2022-09-17T05:57:55;1.20;;;1.03;;
13279;SDS011;6708;49.814;8.652;2022-09-17T06:00:24;0.70;;;0.70;;
13279;SDS011;6708;49.814;8.652;2022-09-17T06:02:54;2.13;;;0.93;;
13279;SDS011;6708;49.814;8.652;2022-09-17T06:05:22;1.07;;;0.63;;
13279;SDS011;6708;49.814;8.652;2022-09-17T06:07:51;2.93;;;0.80;;
13279;SDS011;6708;49.814;8.652;2022-09-17T06:10:19;0.60;;;0.60;;
13279;SDS011;6708;49.814;8.652;2022-09-17T06:12:50;1.27;;;1.00;;
13279;SDS011;6708;49.814;8.652;2022-09-17T06:15:22;0.70;;;0.70;;
13279;SDS011;6708;49.814;8.652;2022-09-17T06:17:51;1.17;;;0.87;;
13279;SDS011;6708;49.814;8.652;2022-09-17T06:20:20;0.97;;;0.87;;
13279;SDS011;6708;49.814;8.652;2022-09-17T06:22:48;1.13;;;0.90;;
13279;SDS011;6708;49.814;8.652;2022-09-17T06:25:16;0.63;;;0.63;;
13279;SDS011;6708;49.814;8.652;2022-09-17T06:27:44;2.10;;;0.90;;
13279;SDS011;6708;49.814;8.652;2022-09-17T06:30:15;1.83;;;0.93;;
13279;SDS011;6708;49.814;8.652;2022-09-17T06:32:44;1.17;;;0.60;;
13279;SDS011;6708;49.814;8.652;2022-09-17T06:35:13;1.30;;;0.93;;
13279;SDS011;6708;49.814;8.652;2022-09-17T06:37:41;1.43;;;1.07;;
13279;SDS011;6708;49.814;8.652;2022-09-17T06:40:09;1.43;;;0.80;;
13279;SDS011;6708;49.814;8.652;2022-09-17T06:42:38;0.97;;;0.80;;
13279;SDS011;6708;49.814;8.652;2022-09-17T06:45:07;0.80;;;0.80;;
13279;SDS011;6708;49.814;8.652;2022-09-17T06:47:38;1.50;;;0.90;;
13279;SDS011;6708;49.814;8.652;2022-09-17T06:50:07;2.97;;;1.33;;
13279;SDS011;6708;49.814;8.652;2022-09-17T06:52:38;1.77;;;1.13;;
13279;SDS011;6708;49.814;8.652;2022-09-17T06:55:07;1.07;;;0.97;;
13279;SDS011;6708;49.814;8.652;2022-09-17T06:57:36;1.00;;;0.90;;
13279;SDS011;6708;49.814;8.652;2022-09-17T07:00:04;1.47;;;0.80;;
13279;SDS011;6708;49.814;8.652;2022-09-17T07:02:34;1.27;;;0.80;;
13279;SDS011;6708;49.814;8.652;2022-09-17T07:05:05;0.50;;;0.50;;
13279;SDS011;6708;49.814;8.652;2022-09-17T07:07:34;1.70;;;0.90;;
13279;SDS011;6708;49.814;8.652;2022-09-17T07:10:03;3.33;;;0.90;;
13279;SDS011;6708;49.814;8.652;2022-09-17T07:12:33;2.07;;;1.20;;
13279;SDS011;6708;49.814;8.652;2022-09-17T07:15:01;1.10;;;0.70;;
13279;SDS011;6708;49.814;8.652;2022-09-17T07:17:29;1.77;;;1.03;;
13279;SDS011;6708;49.814;8.652;2022-09-17T07:19:58;3.30;;;0.90;;
13279;SDS011;6708;49.814;8.652;2022-09-17T07:22:29;3.00;;;1.10;;
13279;SDS011;6708;49.814;8.652;2022-09-17T07:24:57;1.73;;;1.13;;
13279;SDS011;6708;49.814;8.652;2022-09-17T07:27:25;2.60;;;1.00;;
13279;SDS011;6708;49.814;8.652;2022-09-17T07:29:54;2.33;;;1.17;;
13279;SDS011;6708;49.814;8.652;2022-09-17T07:32:23;1.63;;;0.87;;
13279;SDS011;6708;49.814;8.652;2022-09-17T07:34:51;2.63;;;0.97;;
13279;SDS011;6708;49.814;8.652;2022-09-17T07:37:20;1.97;;;0.93;;
13279;SDS011;6708;49.814;8.652;2022-09-17T07:39:51;0.90;;;0.73;;
13279;SDS011;6708;49.814;8.652;2022-09-17T07:42:20;1.83;;;1.43;;
13279;SDS011;6708;49.814;8.652;2022-09-17T07:44:48;2.07;;;0.70;;
13279;SDS011;6708;49.814;8.652;2022-09-17T07:47:17;1.73;;;0.83;;
13279;SDS011;6708;49.814;8.652;2022-09-17T07:49:45;2.33;;;1.07;;
13279;SDS011;6708;49.814;8.652;2022-09-17T07:52:13;1.33;;;0.97;;
13279;SDS011;6708;49.814;8.652;2022-09-17T07:54:42;1.27;;;0.83;;
13279;SDS011;6708;49.814;8.652;2022-09-17T07:57:13;0.80;;;0.80;;
13279;SDS011;6708;49.814;8.652;2022-09-17T07:59:41;3.50;;;0.93;;
13279;SDS011;6708;49.814;8.652;2022-09-17T08:02:10;3.37;;;1.27;;
13279;SDS011;6708;49.814;8.652;2022-09-17T08:04:40;1.37;;;1.03;;
13279;SDS011;6708;49.814;8.652;2022-09-17T08:07:10;7.67;;;1.10;;
13279;SDS011;6708;49.814;8.652;2022-09-17T08:09:38;1.83;;;0.73;;
13279;SDS011;6708;49.814;8.652;2022-09-17T08:12:07;1.30;;;0.80;;
13279;SDS011;6708;49.814;8.652;2022-09-17T08:14:38;1.97;;;1.10;;
13279;SDS011;6708;49.814;8.652;2022-09-17T08:17:07;1.07;;;0.90;;
13279;SDS011;6708;49.814;8.652;2022-09-17T08:19:35;2.63;;;1.00;;
13279;SDS011;6708;49.814;8.652;2022-09-17T08:22:03;1.53;;;1.40;;
13279;SDS011;6708;49.814;8.652;2022-09-17T08:24:32;3.43;;;1.30;;
13279;SDS011;6708;49.814;8.652;2022-09-17T08:27:00;7.43;;;1.60;;
13279;SDS011;6708;49.814;8.652;2022-09-17T08:29:28;1.90;;;1.57;;
13279;SDS011;6708;49.814;8.652;2022-09-17T08:31:59;1.77;;;1.10;;
13279;SDS011;6708;49.814;8.652;2022-09-17T08:34:27;3.23;;;1.10;;
13279;SDS011;6708;49.814;8.652;2022-09-17T08:36:56;1.90;;;1.20;;
13279;SDS011;6708;49.814;8.652;2022-09-17T08:39:24;1.17;;;1.00;;
13279;SDS011;6708;49.814;8.652;2022-09-17T08:41:54;2.87;;;1.17;;
13279;SDS011;6708;49.814;8.652;2022-09-17T08:44:30;4.20;;;1.13;;
13279;SDS011;6708;49.814;8.652;2022-09-17T08:47:07;4.20;;;0.90;;
13279;SDS011;6708;49.814;8.652;2022-09-17T08:49:40;4.03;;;1.30;;
13279;SDS011;6708;49.814;8.652;2022-09-17T08:55:21;14.60;;;1.37;;
13279;SDS011;6708;49.814;8.652;2022-09-17T08:58:02;1.13;;;1.07;;
13279;SDS011;6708;49.814;8.652;2022-09-17T09:00:36;0.93;;;0.80;;
13279;SDS011;6708;49.814;8.652;2022-09-17T09:03:15;3.53;;;1.33;;
13279;SDS011;6708;49.814;8.652;2022-09-17T09:05:49;2.90;;;1.13;;
13279;SDS011;6708;49.814;8.652;2022-09-17T09:08:23;4.87;;;1.40;;
13279;SDS011;6708;49.814;8.652;2022-09-17T09:10:56;2.77;;;1.20;;
13279;SDS011;6708;49.814;8.652;2022-09-17T09:13:26;2.13;;;1.53;;
13279;SDS011;6708;49.814;8.652;2022-09-17T09:15:59;2.50;;;1.23;;
13279;SDS011;6708;49.814;8.652;2022-09-17T09:18:34;3.93;;;1.60;;
13279;SDS011;6708;49.814;8.652;2022-09-17T09:21:07;5.77;;;1.80;;
13279;SDS011;6708;49.814;8.652;2022-09-17T09:23:46;8.43;;;1.40;;
13279;SDS011;6708;49.814;8.652;2022-09-17T09:26:21;3.13;;;1.03;;
13279;SDS011;6708;49.814;8.652;2022-09-17T09:29:02;2.07;;;1.10;;
13279;SDS011;6708;49.814;8.652;2022-09-17T09:31:35;3.23;;;1.20;;
13279;SDS011;6708;49.814;8.652;2022-09-17T09:34:13;2.60;;;1.43;;
13279;SDS011;6708;49.814;8.652;2022-09-17T09:36:42;5.47;;;1.40;;
13279;SDS011;6708;49.814;8.652;2022-09-17T09:39:13;6.73;;;1.47;;
13279;SDS011;6708;49.814;8.652;2022-09-17T09:41:45;1.90;;;1.30;;
13279;SDS011;6708;49.814;8.652;2022-09-17T09:44:15;1.80;;;1.23;;
13279;SDS011;6708;49.814;8.652;2022-09-17T09:49:49;2.97;;;1.10;;
13279;SDS011;6708;49.814;8.652;2022-09-17T09:52:33;2.10;;;1.00;;
13279;SDS011;6708;49.814;8.652;2022-09-17T09:55:14;1.20;;;0.80;;
13279;SDS011;6708;49.814;8.652;2022-09-17T09:57:48;1.20;;;1.10;;
13279;SDS011;6708;49.814;8.652;2022-09-17T10:00:23;1.07;;;0.70;;
13279;SDS011;6708;49.814;8.652;2022-09-17T10:02:55;2.10;;;0.93;;
13279;SDS011;6708;49.814;8.652;2022-09-17T10:05:29;3.90;;;0.80;;
13279;SDS011;6708;49.814;8.652;2022-09-17T10:07:58;2.53;;;1.30;;
13279;SDS011;6708;49.814;8.652;2022-09-17T10:10:26;2.57;;;1.27;;
13279;SDS011;6708;49.814;8.652;2022-09-17T10:13:04;3.77;;;0.93;;
13279;SDS011;6708;49.814;8.652;2022-09-17T10:15:34;3.10;;;1.03;;
13279;SDS011;6708;49.814;8.652;2022-09-17T10:18:15;3.90;;;0.97;;
13279;SDS011;6708;49.814;8.652;2022-09-17T10:20:57;2.60;;;0.60;;
13279;SDS011;6708;49.814;8.652;2022-09-17T10:23:26;1.77;;;1.00;;
13279;SDS011;6708;49.814;8.652;2022-09-17T10:25:58;1.00;;;0.73;;
13279;SDS011;6708;49.814;8.652;2022-09-17T10:28:30;2.47;;;0.67;;
13279;SDS011;6708;49.814;8.652;2022-09-17T10:31:05;1.00;;;0.50;;
13279;SDS011;6708;49.814;8.652;2022-09-17T10:33:36;0.90;;;0.60;;
13279;SDS011;6708;49.814;8.652;2022-09-17T10:36:11;0.87;;;0.40;;
13279;SDS011;6708;49.814;8.652;2022-09-17T10:38:40;1.80;;;0.60;;
13279;SDS011;6708;49.814;8.652;2022-09-17T10:41:17;1.00;;;0.60;;
13279;SDS011;6708;49.814;8.652;2022-09-17T10:43:49;0.40;;;0.40;;
13279;SDS011;6708;49.814;8.652;2022-09-17T10:46:18;0.40;;;0.40;;
13279;SDS011;6708;49.814;8.652;2022-09-17T10:48:52;1.63;;;0.83;;
13279;SDS011;6708;49.814;8.652;2022-09-17T10:51:27;1.40;;;0.60;;
13279;SDS011;6708;49.814;8.652;2022-09-17T10:53:58;0.90;;;0.63;;
13279;SDS011;6708;49.814;8.652;2022-09-17T10:56:41;0.60;;;0.60;;
13279;SDS011;6708;49.814;8.652;2022-09-17T10:59:24;0.73;;;0.70;;
13279;SDS011;6708;49.814;8.652;2022-09-17T11:02:03;0.30;;;0.30;;
13279;SDS011;6708;49.814;8.652;2022-09-17T11:04:45;1.33;;;0.37;;
13279;SDS011;6708;49.814;8.652;2022-09-17T11:07:34;0.43;;;0.43;;
13279;SDS011;6708;49.814;8.652;2022-09-17T11:10:11;0.77;;;0.50;;
13279;SDS011;6708;49.814;8.652;2022-09-17T11:12:55;1.43;;;0.50;;
13279;SDS011;6708;49.814;8.652;2022-09-17T11:15:38;0.53;;;0.40;;
13279;SDS011;6708;49.814;8.652;2022-09-17T11:18:17;0.83;;;0.67;;
13279;SDS011;6708;49.814;8.652;2022-09-17T11:20:58;0.60;;;0.60;;
13279;SDS011;6708;49.814;8.652;2022-09-17T11:23:41;1.20;;;1.10;;
13279;SDS011;6708;49.814;8.652;2022-09-17T11:26:21;1.47;;;0.80;;
13279;SDS011;6708;49.814;8.652;2022-09-17T11:28:58;2.10;;;0.80;;
13279;SDS011;6708;49.814;8.652;2022-09-17T11:31:35;3.03;;;0.60;;
13279;SDS011;6708;49.814;8.652;2022-09-17T11:34:11;3.43;;;0.90;;
13279;SDS011;6708;49.814;8.652;2022-09-17T11:36:52;1.10;;;0.93;;
13279;SDS011;6708;49.814;8.652;2022-09-17T11:39:27;0.50;;;0.50;;
13279;SDS011;6708;49.814;8.652;2022-09-17T11:42:01;1.47;;;0.57;;
13279;SDS011;6708;49.814;8.652;2022-09-17T11:44:31;1.17;;;0.50;;
13279;SDS011;6708;49.814;8.652;2022-09-17T11:47:04;1.40;;;0.53;;
13279;SDS011;6708;49.814;8.652;2022-09-17T11:49:37;0.60;;;0.47;;
13279;SDS011;6708;49.814;8.652;2022-09-17T11:52:10;1.70;;;0.60;;
13279;SDS011;6708;49.814;8.652;2022-09-17T11:54:45;1.43;;;0.63;;
13279;SDS011;6708;49.814;8.652;2022-09-17T11:57:17;0.80;;;0.80;;
13279;SDS011;6708;49.814;8.652;2022-09-17T11:59:48;2.93;;;0.60;;
13279;SDS011;6708;49.814;8.652;2022-09-17T12:02:20;0.60;;;0.57;;
13279;SDS011;6708;49.814;8.652;2022-09-17T12:04:54;0.97;;;0.80;;
13279;SDS011;6708;49.814;8.652;2022-09-17T12:07:29;5.47;;;1.10;;
13279;SDS011;6708;49.814;8.652;2022-09-17T12:10:07;0.73;;;0.43;;
13279;SDS011;6708;49.814;8.652;2022-09-17T12:12:46;3.23;;;1.20;;
13279;SDS011;6708;49.814;8.652;2022-09-17T12:15:19;0.70;;;0.70;;
13279;SDS011;6708;49.814;8.652;2022-09-17T12:17:54;2.20;;;0.90;;
13279;SDS011;6708;49.814;8.652;2022-09-17T12:20:30;1.73;;;1.00;;
13279;SDS011;6708;49.814;8.652;2022-09-17T12:23:01;3.00;;;0.83;;
13279;SDS011;6708;49.814;8.652;2022-09-17T12:25:36;4.40;;;1.30;;
13279;SDS011;6708;49.814;8.652;2022-09-17T12:28:10;3.90;;;1.00;;
13279;SDS011;6708;49.814;8.652;2022-09-17T12:30:42;1.60;;;0.87;;
13279;SDS011;6708;49.814;8.652;2022-09-17T12:33:15;2.93;;;0.93;;
13279;SDS011;6708;49.814;8.652;2022-09-17T12:39:12;3.40;;;1.13;;
13279;SDS011;6708;49.814;8.652;2022-09-17T12:41:53;1.70;;;0.80;;
13279;SDS011;6708;49.814;8.652;2022-09-17T12:44:32;0.63;;;0.63;;
13279;SDS011;6708;49.814;8.652;2022-09-17T12:47:12;1.23;;;0.70;;
13279;SDS011;6708;49.814;8.652;2022-09-17T12:49:54;2.17;;;0.50;;
13279;SDS011;6708;49.814;8.652;2022-09-17T12:52:29;1.73;;;0.87;;
13279;SDS011;6708;49.814;8.652;2022-09-17T12:55:33;3.23;;;0.67;;
13279;SDS011;6708;49.814;8.652;2022-09-17T12:58:13;2.17;;;0.60;;
13279;SDS011;6708;49.814;8.652;2022-09-17T13:00:47;1.27;;;0.67;;
13279;SDS011;6708;49.814;8.652;2022-09-17T13:03:18;1.40;;;0.70;;
13279;SDS011;6708;49.814;8.652;2022-09-17T13:05:53;2.03;;;1.07;;
13279;SDS011;6708;49.814;8.652;2022-09-17T13:08:37;1.63;;;0.60;;
13279;SDS011;6708;49.814;8.652;2022-09-17T13:11:28;6.27;;;1.03;;
13279;SDS011;6708;49.814;8.652;2022-09-17T13:14:10;1.57;;;0.97;;
13279;SDS011;6708;49.814;8.652;2022-09-17T13:16:44;1.17;;;0.67;;
13279;SDS011;6708;49.814;8.652;2022-09-17T13:19:20;1.07;;;0.80;;
13279;SDS011;6708;49.814;8.652;2022-09-17T13:21:58;0.83;;;0.50;;
13279;SDS011;6708;49.814;8.652;2022-09-17T13:24:28;1.73;;;0.73;;
13279;SDS011;6708;49.814;8.652;2022-09-17T13:26:58;1.70;;;0.67;;
13279;SDS011;6708;49.814;8.652;2022-09-17T13:32:41;0.80;;;0.40;;
13279;SDS011;6708;49.814;8.652;2022-09-17T13:38:16;2.63;;;0.63;;
13279;SDS011;6708;49.814;8.652;2022-09-17T13:40:46;2.17;;;0.53;;
13279;SDS011;6708;49.814;8.652;2022-09-17T13:43:15;0.83;;;0.53;;
13279;SDS011;6708;49.814;8.652;2022-09-17T13:48:42;0.63;;;0.60;;
13279;SDS011;6708;49.814;8.652;2022-09-17T13:54:23;2.53;;;0.97;;
13279;SDS011;6708;49.814;8.652;2022-09-17T13:57:05;0.93;;;0.50;;
13279;SDS011;6708;49.814;8.652;2022-09-17T13:59:36;0.50;;;0.50;;
13279;SDS011;6708;49.814;8.652;2022-09-17T14:10:55;0.40;;;0.40;;
13279;SDS011;6708;49.814;8.652;2022-09-17T14:13:38;0.23;;;0.23;;
13279;SDS011;6708;49.814;8.652;2022-09-17T14:19:00;1.50;;;0.47;;
13279;SDS011;6708;49.814;8.652;2022-09-17T14:21:31;1.60;;;0.40;;
13279;SDS011;6708;49.814;8.652;2022-09-17T14:24:00;0.57;;;0.30;;
13279;SDS011;6708;49.814;8.652;2022-09-17T14:26:41;0.30;;;0.30;;
13279;SDS011;6708;49.814;8.652;2022-09-17T14:29:26;4.43;;;0.70;;
13279;SDS011;6708;49.814;8.652;2022-09-17T14:32:05;0.77;;;0.57;;
13279;SDS011;6708;49.814;8.652;2022-09-17T14:34:36;0.53;;;0.53;;
13279;SDS011;6708;49.814;8.652;2022-09-17T14:37:05;0.43;;;0.40;;
13279;SDS011;6708;49.814;8.652;2022-09-17T14:39:37;1.00;;;0.40;;
13279;SDS011;6708;49.814;8.652;2022-09-17T14:42:11;4.10;;;0.80;;
13279;SDS011;6708;49.814;8.652;2022-09-17T14:44:45;0.50;;;0.50;;
13279;SDS011;6708;49.814;8.652;2022-09-17T14:47:16;0.60;;;0.40;;
13279;SDS011;6708;49.814;8.652;2022-09-17T14:49:48;2.03;;;0.60;;
13279;SDS011;6708;49.814;8.652;2022-09-17T14:52:18;4.23;;;0.80;;
13279;SDS011;6708;49.814;8.652;2022-09-17T14:55:07;1.10;;;0.47;;
13279;SDS011;6708;49.814;8.652;2022-09-17T14:57:47;0.50;;;0.30;;
13279;SDS011;6708;49.814;8.652;2022-09-17T15:00:21;0.20;;;0.20;;
13279;SDS011;6708;49.814;8.652;2022-09-17T15:02:51;0.30;;;0.30;;
13279;SDS011;6708;49.814;8.652;2022-09-17T15:05:27;1.57;;;0.60;;
13279;SDS011;6708;49.814;8.652;2022-09-17T15:08:05;0.30;;;0.30;;
13279;SDS011;6708;49.814;8.652;2022-09-17T15:10:44;0.30;;;0.30;;
13279;SDS011;6708;49.814;8.652;2022-09-17T15:13:15;0.20;;;0.20;;
13279;SDS011;6708;49.814;8.652;2022-09-17T15:15:52;0.97;;;0.10;;
13279;SDS011;6708;49.814;8.652;2022-09-17T15:18:25;0.00;;;0.00;;
13279;SDS011;6708;49.814;8.652;2022-09-17T15:21:05;0.47;;;0.10;;
13279;SDS011;6708;49.814;8.652;2022-09-17T15:23:44;0.20;;;0.20;;
13279;SDS011;6708;49.814;8.652;2022-09-17T15:26:12;0.47;;;0.30;;
13279;SDS011;6708;49.814;8.652;2022-09-17T15:28:42;0.30;;;0.30;;
13279;SDS011;6708;49.814;8.652;2022-09-17T15:31:13;0.27;;;0.27;;
13279;SDS011;6708;49.814;8.652;2022-09-17T15:33:44;0.40;;;0.40;;
13279;SDS011;6708;49.814;8.652;2022-09-17T15:36:18;0.20;;;0.20;;
13279;SDS011;6708;49.814;8.652;2022-09-17T15:38:48;0.83;;;0.27;;
13279;SDS011;6708;49.814;8.652;2022-09-17T15:44:11;0.20;;;0.20;;
13279;SDS011;6708;49.814;8.652;2022-09-17T15:46:41;0.40;;;0.30;;
13279;SDS011;6708;49.814;8.652;2022-09-17T15:51:57;0.37;;;0.20;;
13279;SDS011;6708;49.814;8.652;2022-09-17T15:54:55;5.13;;;0.70;;
13279;SDS011;6708;49.814;8.652;2022-09-17T15:57:24;0.73;;;0.47;;
13279;SDS011;6708;49.814;8.652;2022-09-17T15:59:53;1.07;;;0.87;;
13279;SDS011;6708;49.814;8.652;2022-09-17T16:02:26;2.80;;;0.70;;
13279;SDS011;6708;49.814;8.652;2022-09-17T16:08:21;0.73;;;0.40;;
13279;SDS011;6708;49.814;8.652;2022-09-17T16:10:50;0.83;;;0.60;;
13279;SDS011;6708;49.814;8.652;2022-09-17T16:13:19;0.63;;;0.30;;
13279;SDS011;6708;49.814;8.652;2022-09-17T16:15:47;1.43;;;0.50;;
13279;SDS011;6708;49.814;8.652;2022-09-17T16:18:16;2.80;;;0.40;;